Kedves Pilóták, Oktatók, Növendékek!

Az alábbi menüpontban szeretnénk összefoglalni néhány fontos és hasznos információt, linket, amely segíthet a repülések megtervezésében.

Ha bármilyen javaslatod van a tartalommal kapcsolatban, kérlek Ez az e-mail-cím a szpemrobotok elleni védelem alatt áll. Megtekintéséhez engedélyeznie kell a JavaScript használatát.meg nekünk.

 

Jó leszállást!

Repüléssel kapcsolatos hírek

2019. november 12.

IHO.hu - - Repülés RSS

Felhőkép 

Felhőkép

Széltérkép

Széltérkép

Győr-Pér Repülőtér

Élő webkamera kép

 Nagyobb kép

Győr-Pér Repülőtér

[Source: ADDS]
METAR
LHPR 121145Z 14008KT 6000 -RA BKN040 OVC066 09/07 Q1008 RERA =
LHPR 121115Z 1212/1221 13012KT 8000 -RA SCT015 BKN025 OVC060 TEMPO 1212/1218 4000 RA BR BKN008 OVC025 BECMG 1218/1221 18006KT 9999 NSW BKN020 BKN080
TAF
LHPR 121115Z 1212/1221 13012KT 8000 -RA SCT015 BKN025 OVC060 TEMPO 1212/1218 4000 RA BR BKN008 OVC025 BECMG 1218/1221 18006KT 9999 NSW BKN020 BKN080 =
SR / SS: 05:49 / 15:16 UTC (Napkelte / Napnyugta 2019-11-12)

Kapcsolat

Telephely:     9099 Pér, Repülõtér

Klubhelyiség: 9021 Gyõr, Városház tér 3.

E-mail: info@aeroclub-gyor.hu

Telefon: 06-20-777-9106

Adószám: 19113832-2-08

  
Joomla űrlapépítő by JoomlaShine
JSN Metro template designed by JoomlaShine.com